Time;durP1;ratioP1;P1;durP2;ratioP2;P2;SDS_P1;SDS_P2;PMS_P1;PMS_P2;Temp;Humidity;BMP_temperature;BMP_pressure;BME280_temperature;BME280_humidity;BME280_pressure;Samples;Min_cycle;Max_cycle;Signal;HPM_P1;HPM_P2
2022/03/02 00:01:36;;;;;;;;;;;;;;;-0.46;55.06;100964.47;6188373;23;19955;-92
2022/03/02 00:04:01;;;;;;;;;;;;;;;-0.48;55.17;100961.28;6188261;23;19924;-91
2022/03/02 00:06:27;;;;;;;;;;;;;;;-0.49;55.05;100962.44;6162764;23;19923;-91
2022/03/02 00:08:52;;;;;;;;;;;;;;;-0.53;55.30;100970.50;6162904;23;19923;-89
2022/03/02 00:11:18;;;;;;;;;;;;;;;-0.55;55.11;100961.88;6188168;23;19912;-92
2022/03/02 00:13:44;;;;;;;;;;;;;;;-0.57;54.92;100963.34;6163393;23;20350;-90
2022/03/02 00:16:10;;;;;;;;;;;;;;;-0.56;54.85;100946.63;6163198;23;20393;-90
2022/03/02 00:18:35;;;;;;;;;;;;;;;-0.54;54.51;100957.22;6138243;23;19915;-92
2022/03/02 00:21:00;;;;;;;;;;;;;;;-0.49;54.26;100943.38;6163189;23;19912;-92
2022/03/02 00:23:26;;;;;;;;;;;;;;;-0.49;54.26;100943.38;6188484;23;20258;-91
2022/03/02 00:25:52;;;;;;;;;;;;;;;-0.49;54.20;100943.38;6163543;23;19926;-91
2022/03/02 00:28:17;;;;;;;;;;;;;;;-0.49;54.09;100949.63;6189764;23;19919;-91
2022/03/02 00:30:43;;;;;;;;;;;;;;;-0.48;54.21;100947.66;6190351;23;19999;-90
2022/03/02 00:33:08;;;;;;;;;;;;;;;-0.48;54.15;100953.09;6164297;23;19951;-90
2022/03/02 00:35:34;;;;;;;;;;;;;;;-0.51;54.39;100940.16;6163551;23;19916;-91
2022/03/02 00:38:00;;;;;;;;;;;;;;;-0.54;54.18;100935.41;6163368;23;19923;-91
2022/03/02 00:40:25;;;;;;;;;;;;;;;-0.56;54.24;100935.75;6188666;23;19912;-91
2022/03/02 00:42:51;;;;;;;;;;;;;;;-0.56;54.23;100926.75;6187496;23;19922;-92
2022/03/02 00:45:16;;;;;;;;;;;;;;;-0.59;54.43;100943.81;6214158;23;19912;-91
2022/03/02 00:47:42;;;;;;;;;;;;;;;-0.62;54.35;100936.31;6187612;23;19919;-90
2022/03/02 00:50:08;;;;;;;;;;;;;;;-0.63;54.42;100937.44;6163020;23;20227;-91
2022/03/02 00:52:34;;;;;;;;;;;;;;;-0.64;54.38;100936.66;6137699;23;20250;-90
2022/03/02 00:54:59;;;;;;;;;;;;;;;-0.69;54.60;100934.16;6213535;23;20223;-91
2022/03/02 00:57:25;;;;;;;;;;;;;;;-0.71;54.53;100936.41;6187357;23;19912;-90
2022/03/02 00:59:50;;;;;;;;;;;;;;;-0.76;54.56;100933.91;6186910;23;20001;-90
2022/03/02 01:02:15;;;;;;;;;;;;;;;-0.79;54.68;100929.16;6187319;23;19924;-89
2022/03/02 01:04:41;;;;;;;;;;;;;;;-0.79;54.90;100941.97;6137664;23;20257;-89
2022/03/02 01:07:06;;;;;;;;;;;;;;;-0.80;54.94;100934.91;6186427;23;19916;-90
2022/03/02 01:09:32;;;;;;;;;;;;;;;-0.82;55.06;100942.66;6213263;23;20273;-90
2022/03/02 01:11:57;;;;;;;;;;;;;;;-0.86;55.08;100937.09;6187081;23;20006;-90
2022/03/02 01:14:23;;;;;;;;;;;;;;;-0.88;55.22;100933.91;6212497;23;19923;-90
2022/03/02 01:16:48;;;;;;;;;;;;;;;-0.89;55.37;100939.69;6187193;23;20364;-90
2022/03/02 01:19:14;;;;;;;;;;;;;;;-0.95;55.46;100942.63;6162349;23;20289;-90
2022/03/02 01:21:39;;;;;;;;;;;;;;;-0.99;55.57;100930.81;6162425;23;19979;-89
2022/03/02 01:24:05;;;;;;;;;;;;;;;-0.97;55.32;100922.31;6137458;23;19912;-90
2022/03/02 01:26:31;;;;;;;;;;;;;;;-0.97;55.18;100917.66;6162550;23;19923;-89
2022/03/02 01:28:57;;;;;;;;;;;;;;;-0.95;55.25;100903.72;6162357;23;20365;-93
2022/03/02 01:31:23;;;;;;;;;;;;;;;-0.93;55.08;100911.56;6137463;23;19920;-90
2022/03/02 01:33:50;;;;;;;;;;;;;;;-0.95;55.12;100904.50;6187190;23;19916;-91
2022/03/02 01:36:15;;;;;;;;;;;;;;;-0.97;55.24;100906.75;6187042;23;19951;-91
2022/03/02 01:38:41;;;;;;;;;;;;;;;-1.00;55.55;100902.00;6186601;23;19923;-90
2022/03/02 01:41:06;;;;;;;;;;;;;;;-1.11;55.81;100903.56;6212123;23;19990;-91
2022/03/02 01:43:34;;;;;;;;;;;;;;;-1.18;56.19;100899.81;6186820;23;19916;-91
2022/03/02 01:45:59;;;;;;;;;;;;;;;-1.21;56.37;100890.38;6162007;23;19916;-90
2022/03/02 01:48:25;;;;;;;;;;;;;;;-1.25;56.36;100897.63;6186883;23;19927;-90
2022/03/02 01:50:50;;;;;;;;;;;;;;;-1.30;56.48;100892.41;6187222;23;19926;-92
2022/03/02 01:53:16;;;;;;;;;;;;;;;-1.38;56.83;100890.59;6161755;23;19916;-90
2022/03/02 01:55:41;;;;;;;;;;;;;;;-1.40;57.05;100887.38;6186825;23;19915;-91
2022/03/02 01:58:06;;;;;;;;;;;;;;;-1.47;57.37;100898.03;6186434;23;19998;-90
2022/03/02 02:00:32;;;;;;;;;;;;;;;-1.47;57.46;100887.16;6161969;23;19920;-90
2022/03/02 02:02:57;;;;;;;;;;;;;;;-1.45;57.37;100884.88;6161606;23;20424;-91
2022/03/02 02:05:23;;;;;;;;;;;;;;;-1.43;57.40;100879.91;6161969;23;19916;-90
2022/03/02 02:07:48;;;;;;;;;;;;;;;-1.42;57.09;100878.78;6161739;23;19923;-89
2022/03/02 02:10:15;;;;;;;;;;;;;;;-1.40;56.73;100879.22;6161877;23;19947;-90
2022/03/02 02:12:40;;;;;;;;;;;;;;;-1.36;56.48;100854.84;6187270;23;19923;-89
2022/03/02 02:15:06;;;;;;;;;;;;;;;-1.33;56.30;100884.13;6186466;23;20406;-91
2022/03/02 02:17:32;;;;;;;;;;;;;;;-1.30;56.33;100883.44;6162057;23;19974;-90
2022/03/02 02:19:57;;;;;;;;;;;;;;;-1.31;56.40;100879.94;6161589;23;19920;-90
2022/03/02 02:22:23;;;;;;;;;;;;;;;-1.30;56.17;100880.72;6186386;23;20300;-90
2022/03/02 02:24:48;;;;;;;;;;;;;;;-1.29;56.19;100877.66;6186553;23;19922;-90
2022/03/02 02:27:14;;;;;;;;;;;;;;;-1.35;56.45;100865.41;6161456;23;20427;-90
2022/03/02 02:29:40;;;;;;;;;;;;;;;-1.36;56.45;100877.41;6187247;23;20253;-90
2022/03/02 02:32:05;;;;;;;;;;;;;;;-1.37;56.35;100870.38;6161891;23;20006;-90
2022/03/02 02:34:31;;;;;;;;;;;;;;;-1.38;56.64;100868.00;6162187;23;20247;-92
2022/03/02 02:37:00;;;;;;;;;;;;;;;-1.36;56.59;100863.00;6186446;23;20335;-90
2022/03/02 02:39:29;;;;;;;;;;;;;;;-1.38;56.48;100863.38;6137455;23;19920;-90
2022/03/02 02:41:57;;;;;;;;;;;;;;;-1.38;56.58;100857.13;6162706;23;20262;-90
2022/03/02 02:44:23;;;;;;;;;;;;;;;-1.39;56.66;100859.06;6163852;23;20017;-90
2022/03/02 02:46:48;;;;;;;;;;;;;;;-1.40;56.60;100862.91;6139413;23;19916;-91
2022/03/02 02:49:14;;;;;;;;;;;;;;;-1.45;56.76;100857.66;6138876;23;19962;-91
2022/03/02 02:51:39;;;;;;;;;;;;;;;-1.45;56.98;100860.38;6163781;23;20283;-90
2022/03/02 02:54:04;;;;;;;;;;;;;;;-1.50;57.22;100864.13;6138495;23;19965;-90
2022/03/02 02:56:30;;;;;;;;;;;;;;;-1.56;57.49;100859.22;6163709;23;20338;-91
2022/03/02 02:58:55;;;;;;;;;;;;;;;-1.64;57.71;100860.09;6188176;23;19994;-91
2022/03/02 03:01:21;;;;;;;;;;;;;;;-1.69;57.89;100865.75;6163759;23;19915;-90
2022/03/02 03:03:47;;;;;;;;;;;;;;;-1.71;57.78;100865.31;6187948;23;20346;-91
2022/03/02 03:06:12;;;;;;;;;;;;;;;-1.76;57.83;100865.50;6163098;23;19920;-89
2022/03/02 03:08:38;;;;;;;;;;;;;;;-1.82;58.23;100867.66;6138940;23;20350;-89
2022/03/02 03:11:03;;;;;;;;;;;;;;;-1.81;58.19;100871.13;6187905;23;19920;-88
2022/03/02 03:13:29;;;;;;;;;;;;;;;-1.83;58.35;100867.97;6212814;23;19920;-89
2022/03/02 03:15:54;;;;;;;;;;;;;;;-1.88;58.28;100872.50;6163032;23;19916;-88
2022/03/02 03:18:20;;;;;;;;;;;;;;;-1.90;58.56;100873.97;6162754;23;19923;-90
2022/03/02 03:20:45;;;;;;;;;;;;;;;-1.95;58.86;100864.06;6187673;23;19919;-90
2022/03/02 03:23:11;;;;;;;;;;;;;;;-1.93;58.85;100866.44;6187492;23;19920;-89
2022/03/02 03:25:36;;;;;;;;;;;;;;;-1.90;58.65;100858.41;6162905;23;20397;-90
2022/03/02 03:28:02;;;;;;;;;;;;;;;-1.87;58.66;100856.97;6162595;23;19916;-88
2022/03/02 03:30:28;;;;;;;;;;;;;;;-1.89;58.58;100857.28;6163231;23;19916;-90
2022/03/02 03:32:54;;;;;;;;;;;;;;;-1.85;58.66;100853.91;6138593;23;19993;-90
2022/03/02 03:35:20;;;;;;;;;;;;;;;-1.83;58.43;100846.22;6162800;23;19916;-90
2022/03/02 03:37:45;;;;;;;;;;;;;;;-1.79;58.32;100841.69;6137954;23;19916;-89
2022/03/02 03:40:12;;;;;;;;;;;;;;;-1.77;58.24;100844.88;6163179;23;19923;-90
2022/03/02 03:42:38;;;;;;;;;;;;;;;-1.77;58.41;100839.44;6162644;23;20257;-89
2022/03/02 03:45:04;;;;;;;;;;;;;;;-1.77;58.40;100834.78;6138895;23;19908;-90
2022/03/02 03:47:30;;;;;;;;;;;;;;;-1.73;58.41;100843.06;6163057;23;20254;-90
2022/03/02 03:49:55;;;;;;;;;;;;;;;-1.72;58.49;100839.22;6163244;23;19920;-90
2022/03/02 03:52:21;;;;;;;;;;;;;;;-1.71;58.40;100840.81;6162396;23;19920;-89
2022/03/02 03:54:46;;;;;;;;;;;;;;;-1.73;58.47;100832.97;6162931;23;20011;-90
2022/03/02 03:57:11;;;;;;;;;;;;;;;-1.72;58.53;100836.50;6187423;23;20338;-89
2022/03/02 03:59:37;;;;;;;;;;;;;;;-1.72;58.62;100833.78;6188466;23;20224;-89
2022/03/02 04:02:02;;;;;;;;;;;;;;;-1.72;58.46;100834.59;6139771;23;19970;-90
2022/03/02 04:04:28;;;;;;;;;;;;;;;-1.69;58.75;100831.19;6167494;23;20006;-91
2022/03/02 04:06:53;;;;;;;;;;;;;;;-1.69;58.60;100841.25;6173509;23;19916;-89
2022/03/02 04:09:18;;;;;;;;;;;;;;;-1.72;58.77;100831.06;6172325;23;20362;-91
2022/03/02 04:11:44;;;;;;;;;;;;;;;-1.72;58.85;100836.50;6144368;23;19916;-90
2022/03/02 04:14:09;;;;;;;;;;;;;;;-1.73;58.85;100832.19;6162765;23;19970;-89
2022/03/02 04:16:35;;;;;;;;;;;;;;;-1.76;58.97;100833.66;6162523;23;19916;-90
2022/03/02 04:19:00;;;;;;;;;;;;;;;-1.79;59.17;100831.63;6162555;23;19916;-90
2022/03/02 04:21:26;;;;;;;;;;;;;;;-1.83;59.36;100832.63;6163039;23;20058;-88
2022/03/02 04:23:51;;;;;;;;;;;;;;;-1.88;59.54;100837.13;6190347;23;20027;-88
2022/03/02 04:26:17;;;;;;;;;;;;;;;-1.88;59.72;100834.41;6187759;23;20327;-89
2022/03/02 04:28:42;;;;;;;;;;;;;;;-1.92;59.66;100849.00;6162677;23;19927;-90
2022/03/02 04:31:08;;;;;;;;;;;;;;;-1.97;59.89;100841.84;6162285;23;20325;-90
2022/03/02 04:33:33;;;;;;;;;;;;;;;-2.00;59.99;100844.44;6186916;23;19939;-89
2022/03/02 04:35:59;;;;;;;;;;;;;;;-2.03;60.16;100840.47;6162536;23;19991;-89
2022/03/02 04:38:24;;;;;;;;;;;;;;;-2.09;60.18;100839.06;6162181;23;19919;-89
2022/03/02 04:40:50;;;;;;;;;;;;;;;-2.10;60.36;100831.28;6162886;23;20002;-90
2022/03/02 04:43:17;;;;;;;;;;;;;;;-2.20;60.88;100826.22;6186365;23;19922;-89
2022/03/02 04:45:42;;;;;;;;;;;;;;;-2.27;61.19;100832.22;6162696;23;20301;-89
2022/03/02 04:48:09;;;;;;;;;;;;;;;-2.33;61.24;100828.09;6162162;23;19919;-90
2022/03/02 04:50:34;;;;;;;;;;;;;;;-2.35;61.81;100827.63;6166422;23;19916;-88
2022/03/02 04:53:00;;;;;;;;;;;;;;;-2.33;61.93;100827.28;6162648;23;19965;-91
2022/03/02 04:55:25;;;;;;;;;;;;;;;-2.32;62.01;100828.88;6162278;23;19998;-89
2022/03/02 04:57:55;;;;;;;;;;;;;;;-2.27;62.11;100826.78;6186450;23;19916;-91
2022/03/02 05:00:21;;;;;;;;;;;;;;;-2.28;61.85;100825.16;6137052;23;19920;-90
2022/03/02 05:02:47;;;;;;;;;;;;;;;-2.25;62.03;100829.13;6162406;23;19915;-89
2022/03/02 05:05:13;;;;;;;;;;;;;;;-2.24;62.01;100826.09;6187061;23;19927;-89
2022/03/02 05:07:39;;;;;;;;;;;;;;;-2.22;61.68;100817.63;6187408;23;20254;-91
2022/03/02 05:10:05;;;;;;;;;;;;;;;-2.25;61.86;100813.63;6162575;23;19916;-89
2022/03/02 05:12:30;;;;;;;;;;;;;;;-2.28;62.08;100819.75;6188204;23;19920;-89
2022/03/02 05:14:55;;;;;;;;;;;;;;;-2.24;61.99;100820.66;6188675;23;19912;-89
2022/03/02 05:17:21;;;;;;;;;;;;;;;-2.21;61.98;100813.75;6213760;23;19916;-89
2022/03/02 05:19:49;;;;;;;;;;;;;;;-2.20;61.92;100815.34;6188038;23;20258;-89
2022/03/02 05:22:14;;;;;;;;;;;;;;;-2.17;61.99;100814.69;6162773;23;20338;-91
2022/03/02 05:24:40;;;;;;;;;;;;;;;-2.18;62.03;100813.88;6163887;23;19919;-88
2022/03/02 05:27:06;;;;;;;;;;;;;;;-2.14;61.92;100814.81;6162528;23;20334;-90
2022/03/02 05:29:31;;;;;;;;;;;;;;;-2.18;62.15;100807.69;6137787;23;19916;-91
2022/03/02 05:31:57;;;;;;;;;;;;;;;-2.22;62.35;100812.97;6161997;23;19922;-91
2022/03/02 05:34:22;;;;;;;;;;;;;;;-2.23;62.48;100813.31;6161962;23;20034;-91
2022/03/02 05:36:48;;;;;;;;;;;;;;;-2.22;62.57;100807.53;6162871;23;19966;-90
2022/03/02 05:39:13;;;;;;;;;;;;;;;-2.26;62.78;100817.47;6139197;23;19919;-90
2022/03/02 05:41:39;;;;;;;;;;;;;;;-2.23;63.03;100819.53;6138454;23;20342;-89
2022/03/02 05:44:05;;;;;;;;;;;;;;;-2.22;62.59;100818.41;6161273;23;19985;-88
2022/03/02 05:46:30;;;;;;;;;;;;;;;-2.18;62.57;100819.31;6136496;23;19915;-88
2022/03/02 05:48:55;;;;;;;;;;;;;;;-2.17;62.72;100814.69;6161617;23;20459;-87
2022/03/02 05:51:21;;;;;;;;;;;;;;;-2.22;63.04;100807.53;6187846;23;19939;-89
2022/03/02 05:53:46;;;;;;;;;;;;;;;-2.20;62.81;100810.72;6211086;23;20253;-87
2022/03/02 05:56:12;;;;;;;;;;;;;;;-2.14;62.80;100819.47;6181909;23;19923;-88
2022/03/02 05:58:37;;;;;;;;;;;;;;;-2.12;62.56;100823.44;6181411;23;20504;-89
2022/03/02 06:01:03;;;;;;;;;;;;;;;-2.08;62.80;100815.41;6209838;23;20261;-88
2022/03/02 06:03:29;;;;;;;;;;;;;;;-2.03;62.29;100821.44;6209233;23;19973;-87
2022/03/02 06:05:54;;;;;;;;;;;;;;;-2.01;62.28;100815.66;6182185;23;20294;-87
2022/03/02 06:08:20;;;;;;;;;;;;;;;-1.99;62.32;100808.78;6158376;23;19916;-89
2022/03/02 06:10:46;;;;;;;;;;;;;;;-2.00;62.46;100815.34;6156785;23;19916;-89
2022/03/02 06:13:14;;;;;;;;;;;;;;;-1.96;62.67;100815.47;6158100;23;19920;-89
2022/03/02 06:15:39;;;;;;;;;;;;;;;-1.98;62.22;100810.34;6159889;23;19922;-89
2022/03/02 06:18:05;;;;;;;;;;;;;;;-1.98;62.66;100810.34;6185201;23;19943;-89
2022/03/02 06:20:31;;;;;;;;;;;;;;;-1.96;62.69;100813.53;6163886;23;19915;-91
2022/03/02 06:22:56;;;;;;;;;;;;;;;-1.90;62.63;100798.59;6141091;23;19916;-91
2022/03/02 06:25:22;;;;;;;;;;;;;;;-1.80;62.20;100813.72;6164976;23;20074;-91
2022/03/02 06:27:48;;;;;;;;;;;;;;;-1.71;61.92;100803.53;6161622;23;20279;-89
2022/03/02 06:30:14;;;;;;;;;;;;;;;-1.62;62.23;100814.34;6186951;23;19946;-88
2022/03/02 06:32:39;;;;;;;;;;;;;;;-1.51;61.36;100810.03;6162815;23;19916;-89
2022/03/02 06:35:06;;;;;;;;;;;;;;;-1.40;61.22;100800.31;6163005;23;19950;-89
2022/03/02 06:37:33;;;;;;;;;;;;;;;-1.24;60.77;100808.59;6163718;23;19916;-88
2022/03/02 06:39:59;;;;;;;;;;;;;;;-1.16;60.38;100808.50;6139765;23;19943;-85
2022/03/02 06:42:28;;;;;;;;;;;;;;;-1.02;59.92;100806.25;6162949;23;20292;-88
2022/03/02 06:44:54;;;;;;;;;;;;;;;-0.93;59.65;100804.19;6161832;23;19916;-90
2022/03/02 06:47:22;;;;;;;;;;;;;;;-0.81;59.49;100813.50;6163754;23;19916;-90
2022/03/02 06:49:56;;;;;;;;;;;;;;;-0.71;58.86;100813.81;6163369;23;19915;-89
2022/03/02 06:52:21;;;;;;;;;;;;;;;-0.60;58.44;100811.41;6162126;23;19994;-89
2022/03/02 06:54:47;;;;;;;;;;;;;;;-0.50;58.02;100819.13;6185866;23;19966;-89
2022/03/02 06:57:13;;;;;;;;;;;;;;;-0.40;58.32;100809.69;6186275;23;19949;-90
2022/03/02 06:59:42;;;;;;;;;;;;;;;-0.26;57.61;100815.53;6162003;23;19916;-89
2022/03/02 07:02:08;;;;;;;;;;;;;;;-0.07;57.03;100802.88;6213948;23;19916;-91
2022/03/02 07:04:35;;;;;;;;;;;;;;;0.06;56.42;100824.63;6186918;23;19923;-91
2022/03/02 07:07:01;;;;;;;;;;;;;;;0.07;55.90;100823.50;6160432;23;19924;-89
2022/03/02 07:09:26;;;;;;;;;;;;;;;0.22;56.29;100825.47;6134358;23;19920;-90
2022/03/02 07:11:52;;;;;;;;;;;;;;;0.47;55.79;100822.28;6159335;23;20330;-90
2022/03/02 07:14:17;;;;;;;;;;;;;;;0.58;54.72;100821.75;6136156;23;20247;-93
2022/03/02 07:16:43;;;;;;;;;;;;;;;0.61;54.87;100821.06;6162725;23;19926;-90
2022/03/02 07:19:09;;;;;;;;;;;;;;;0.75;54.62;100816.75;6136893;23;19916;-90
2022/03/02 07:21:36;;;;;;;;;;;;;;;0.92;53.75;100821.88;6138371;23;19923;-89
2022/03/02 07:24:13;;;;;;;;;;;;;;;0.97;53.96;100817.28;6163241;23;19923;-89
2022/03/02 07:26:39;;;;;;;;;;;;;;;0.96;53.42;100812.97;6188566;23;19916;-89
2022/03/02 07:29:06;;;;;;;;;;;;;;;1.17;52.96;100817.00;6163495;23;19922;-88
2022/03/02 07:31:31;;;;;;;;;;;;;;;1.19;52.74;100825.63;6162920;23;19968;-90
2022/03/02 07:33:57;;;;;;;;;;;;;;;1.11;52.35;100823.09;6163023;23;19915;-90
2022/03/02 07:36:22;;;;;;;;;;;;;;;1.16;53.02;100820.09;6140222;23;20354;-94
2022/03/02 07:38:48;;;;;;;;;;;;;;;1.29;52.81;100810.63;6143217;23;19920;-92
2022/03/02 07:41:13;;;;;;;;;;;;;;;1.46;52.45;100812.97;6141169;23;19927;-93
2022/03/02 07:43:39;;;;;;;;;;;;;;;1.55;51.21;100815.50;6142666;23;19916;-94
2022/03/02 07:46:06;;;;;;;;;;;;;;;1.59;51.51;100817.16;6141248;23;20365;-92
2022/03/02 07:48:31;;;;;;;;;;;;;;;1.61;51.17;100814.09;6141253;23;19974;-93
2022/03/02 07:50:57;;;;;;;;;;;;;;;1.83;50.74;100814.16;6140668;23;20319;-93
2022/03/02 07:53:23;;;;;;;;;;;;;;;1.76;50.51;100819.50;6140580;23;19920;-93
2022/03/02 07:55:49;;;;;;;;;;;;;;;1.70;50.65;100812.72;6163925;23;20345;-89
2022/03/02 07:58:15;;;;;;;;;;;;;;;1.71;50.88;100814.31;6138565;23;19915;-89
2022/03/02 08:00:40;;;;;;;;;;;;;;;1.75;50.40;100814.38;6188172;23;19915;-91
2022/03/02 08:03:06;;;;;;;;;;;;;;;1.70;50.49;100812.72;6163103;23;20342;-91
2022/03/02 08:05:32;;;;;;;;;;;;;;;1.73;50.36;100801.06;6163833;23;19943;-89
2022/03/02 08:07:59;;;;;;;;;;;;;;;1.80;50.41;100806.69;6163195;23;19948;-89
2022/03/02 08:10:26;;;;;;;;;;;;;;;1.93;50.59;100798.34;6163404;23;19939;-91
2022/03/02 08:12:52;;;;;;;;;;;;;;;2.18;50.02;100803.16;6163470;23;19916;-94
2022/03/02 08:15:18;;;;;;;;;;;;;;;2.13;49.17;100795.25;6140086;23;20330;-90
2022/03/02 08:17:44;;;;;;;;;;;;;;;2.26;49.23;100795.88;6162931;23;19920;-89
2022/03/02 08:20:10;;;;;;;;;;;;;;;2.41;48.66;100796.91;6162660;23;20341;-90
2022/03/02 08:22:35;;;;;;;;;;;;;;;2.43;48.97;100784.44;6138407;23;19915;-91
2022/03/02 08:25:10;;;;;;;;;;;;;;;2.50;48.62;100787.31;6187612;23;20342;-90
2022/03/02 08:27:40;;;;;;;;;;;;;;;2.57;48.07;100784.69;6162862;23;20223;-89
2022/03/02 08:30:06;;;;;;;;;;;;;;;2.62;48.02;100781.66;6162808;23;19916;-89
2022/03/02 08:32:37;;;;;;;;;;;;;;;2.69;47.26;100775.50;6214530;23;19920;-90
2022/03/02 08:35:03;;;;;;;;;;;;;;;2.76;47.57;100773.66;6187663;23;19963;-88
2022/03/02 08:37:29;;;;;;;;;;;;;;;2.92;47.27;100775.47;6187168;23;19938;-89
2022/03/02 08:39:55;;;;;;;;;;;;;;;3.05;47.15;100771.38;6187156;23;19920;-88
2022/03/02 08:42:20;;;;;;;;;;;;;;;3.23;46.95;100772.44;6162146;23;19970;-90
2022/03/02 08:44:46;;;;;;;;;;;;;;;3.29;46.92;100769.00;6213755;23;19912;-88
2022/03/02 08:47:12;;;;;;;;;;;;;;;3.44;45.94;100769.22;6187055;23;19915;-90
2022/03/02 08:49:37;;;;;;;;;;;;;;;3.65;45.53;100764.78;6213644;23;19983;-92
2022/03/02 08:52:03;;;;;;;;;;;;;;;3.73;44.76;100754.69;6162883;23;19927;-92
2022/03/02 08:54:29;;;;;;;;;;;;;;;3.64;45.35;100757.72;6138276;23;20305;-92
2022/03/02 08:56:54;;;;;;;;;;;;;;;3.93;44.95;100742.38;6163991;23;19982;-93
2022/03/02 08:59:20;;;;;;;;;;;;;;;4.18;44.13;100750.91;6138656;23;19912;-93
2022/03/02 09:01:49;;;;;;;;;;;;;;;4.47;42.20;100741.00;6163937;23;19923;-94
2022/03/02 09:04:18;;;;;;;;;;;;;;;4.46;42.80;100734.69;6163374;23;20258;-94
2022/03/02 09:06:45;;;;;;;;;;;;;;;4.61;41.59;100733.66;6164986;23;19939;-94
2022/03/02 09:09:10;;;;;;;;;;;;;;;4.97;41.89;100725.69;6139316;23;19915;-94
2022/03/02 09:11:38;;;;;;;;;;;;;;;5.17;41.82;100713.25;6163417;23;20528;-92
2022/03/02 09:14:03;;;;;;;;;;;;;;;5.43;40.49;100726.75;6163761;23;19922;-92
2022/03/02 09:16:29;;;;;;;;;;;;;;;5.42;39.66;100716.16;6163152;23;20301;-92
2022/03/02 09:18:54;;;;;;;;;;;;;;;5.50;40.26;100726.00;6163702;23;19920;-92
2022/03/02 09:21:20;;;;;;;;;;;;;;;5.32;39.79;100725.91;6139280;23;19923;-93
2022/03/02 09:23:46;;;;;;;;;;;;;;;5.37;39.58;100722.81;6139118;23;19923;-93
2022/03/02 09:26:13;;;;;;;;;;;;;;;5.12;40.23;100721.88;6163904;23;19919;-92
2022/03/02 09:28:39;;;;;;;;;;;;;;;5.28;40.43;100714.09;6163881;23;20338;-95
2022/03/02 09:31:05;;;;;;;;;;;;;;;5.59;40.63;100707.94;6138333;23;19920;-88
2022/03/02 09:33:31;;;;;;;;;;;;;;;5.76;40.47;100700.94;6212634;23;19920;-88
2022/03/02 09:35:57;;;;;;;;;;;;;;;5.56;40.92;100702.44;6187054;23;20318;-89
2022/03/02 09:38:26;;;;;;;;;;;;;;;5.47;41.24;100713.78;6161946;23;20257;-88
2022/03/02 09:40:53;;;;;;;;;;;;;;;5.56;41.62;100707.94;6161740;23;19919;-89
2022/03/02 09:43:19;;;;;;;;;;;;;;;5.74;40.90;100703.31;6162009;23;20005;-88
2022/03/02 09:45:45;;;;;;;;;;;;;;;5.76;40.49;100708.41;6161928;23;19916;-88
2022/03/02 09:48:12;;;;;;;;;;;;;;;5.42;41.00;100703.16;6162421;23;19927;-93
2022/03/02 09:50:39;;;;;;;;;;;;;;;5.41;40.64;100695.31;6138551;23;19923;-89
2022/03/02 09:53:08;;;;;;;;;;;;;;;5.18;40.62;100686.53;6164373;23;19923;-89
2022/03/02 09:55:35;;;;;;;;;;;;;;;5.12;40.65;100680.63;6139808;23;19931;-89
2022/03/02 09:58:00;;;;;;;;;;;;;;;5.30;39.81;100689.72;6164481;23;19998;-89
2022/03/02 10:00:27;;;;;;;;;;;;;;;5.61;40.13;100672.59;6188371;23;20353;-88
2022/03/02 10:02:54;;;;;;;;;;;;;;;5.68;39.64;100671.81;6139464;23;19998;-90
2022/03/02 10:05:38;;;;;;;;;;;;;;;5.78;40.10;100670.28;6139437;23;19994;-89
2022/03/02 10:08:04;;;;;;;;;;;;;;;5.97;39.96;100664.44;6165168;23;19998;-92
2022/03/02 10:10:33;;;;;;;;;;;;;;;6.32;38.79;100661.72;6140920;23;19915;-92
2022/03/02 10:13:01;;;;;;;;;;;;;;;6.46;38.35;100644.44;6165948;23;19938;-92
2022/03/02 10:15:26;;;;;;;;;;;;;;;6.41;38.00;100642.84;6165071;23;19916;-93
2022/03/02 10:17:52;;;;;;;;;;;;;;;6.75;38.20;100634.16;6190122;23;20054;-93
2022/03/02 10:20:22;;;;;;;;;;;;;;;6.94;36.57;100631.75;6140297;23;20250;-93
2022/03/02 10:23:06;;;;;;;;;;;;;;;7.08;36.00;100621.88;6165417;23;20413;-93
2022/03/02 10:25:52;;;;;;;;;;;;;;;6.86;36.36;100637.69;6165124;23;20235;-91
2022/03/02 10:28:24;;;;;;;;;;;;;;;6.55;35.75;100637.31;6189472;23;19915;-93
2022/03/02 10:31:08;;;;;;;;;;;;;;;6.21;37.10;100635.38;6165576;23;19922;-94
2022/03/02 10:33:36;;;;;;;;;;;;;;;6.19;37.54;100621.97;6164401;23;19990;-93
2022/03/02 10:36:06;;;;;;;;;;;;;;;6.10;37.64;100610.56;6164735;23;19922;-93
2022/03/02 10:38:50;;;;;;;;;;;;;;;6.15;37.35;100623.94;6140241;23;20236;-92
2022/03/02 10:41:17;;;;;;;;;;;;;;;6.16;36.18;100625.50;6165205;23;20292;-93
2022/03/02 10:44:03;;;;;;;;;;;;;;;6.13;36.75;100620.00;6165157;23;20244;-92
2022/03/02 10:46:28;;;;;;;;;;;;;;;6.21;36.74;100614.13;6164420;23;19970;-90
2022/03/02 10:49:09;;;;;;;;;;;;;;;6.38;37.08;100616.09;6187864;23;20301;-89
2022/03/02 10:51:35;;;;;;;;;;;;;;;6.45;36.48;100618.81;6162643;23;19916;-92
2022/03/02 10:54:01;;;;;;;;;;;;;;;6.37;37.48;100603.47;6165187;23;20257;-92
2022/03/02 10:56:27;;;;;;;;;;;;;;;6.49;38.25;100611.34;6164803;23;20297;-93
2022/03/02 10:58:52;;;;;;;;;;;;;;;6.29;37.38;100607.44;6140402;23;19920;-92
2022/03/02 11:01:18;;;;;;;;;;;;;;;6.30;37.34;100597.19;6163879;23;20318;-93
2022/03/02 11:03:44;;;;;;;;;;;;;;;6.50;37.71;100595.59;6164478;23;20223;-92
2022/03/02 11:06:11;;;;;;;;;;;;;;;6.69;36.59;100586.09;6164373;23;19962;-92
2022/03/02 11:08:37;;;;;;;;;;;;;;;6.80;36.34;100581.34;6189650;23;19916;-92
2022/03/02 11:11:04;;;;;;;;;;;;;;;6.68;35.63;100579.81;6165404;23;20093;-92
2022/03/02 11:13:29;;;;;;;;;;;;;;;6.49;34.30;100583.00;6164733;23;19916;-92
2022/03/02 11:15:56;;;;;;;;;;;;;;;6.32;34.91;100573.56;6164733;23;19923;-91
2022/03/02 11:18:38;;;;;;;;;;;;;;;6.22;34.83;100585.41;6189730;23;19916;-93
2022/03/02 11:21:05;;;;;;;;;;;;;;;5.96;35.86;100580.25;6164605;23;20361;-92
2022/03/02 11:23:40;;;;;;;;;;;;;;;5.86;37.11;100573.59;6139449;23;19915;-91
2022/03/02 11:26:07;;;;;;;;;;;;;;;5.91;37.13;100569.63;6139812;23;19923;-89
2022/03/02 11:28:33;;;;;;;;;;;;;;;6.06;37.34;100565.72;6164846;23;19919;-88
2022/03/02 11:31:04;;;;;;;;;;;;;;;6.18;36.20;100562.56;6138903;23;20364;-89
2022/03/02 11:33:29;;;;;;;;;;;;;;;6.31;35.60;100562.97;6138813;23;20003;-88
2022/03/02 11:35:59;;;;;;;;;;;;;;;6.43;35.09;100552.28;6138820;23;19940;-89
2022/03/02 11:38:27;;;;;;;;;;;;;;;6.64;34.02;100545.16;6163977;23;19916;-88
2022/03/02 11:40:53;;;;;;;;;;;;;;;6.77;34.18;100546.31;6138928;23;19916;-89
2022/03/02 11:43:25;;;;;;;;;;;;;;;6.86;34.20;100541.16;6163982;23;20389;-87
2022/03/02 11:45:51;;;;;;;;;;;;;;;7.10;33.93;100553.28;6163512;23;19939;-89
2022/03/02 11:48:16;;;;;;;;;;;;;;;7.35;34.06;100542.91;6163051;23;19915;-87
2022/03/02 11:51:00;;;;;;;;;;;;;;;7.37;33.59;100537.75;6138377;23;19916;-85
2022/03/02 11:53:29;;;;;;;;;;;;;;;7.55;33.27;100540.41;6187613;23;19926;-88
2022/03/02 11:55:55;;;;;;;;;;;;;;;7.29;31.76;100530.72;6163165;23;20289;-86
2022/03/02 11:58:21;;;;;;;;;;;;;;;7.26;32.40;100526.78;6162703;23;19991;-84
2022/03/02 12:00:46;;;;;;;;;;;;;;;7.32;31.56;100530.69;6162916;23;19916;-89
2022/03/02 12:03:11;;;;;;;;;;;;;;;7.46;32.20;100519.56;6162369;23;19920;-92
2022/03/02 12:05:37;;;;;;;;;;;;;;;7.87;33.11;100522.44;6163348;23;19966;-93
2022/03/02 12:08:04;;;;;;;;;;;;;;;7.92;30.76;100523.97;6163527;23;20315;-91
2022/03/02 12:10:30;;;;;;;;;;;;;;;7.40;31.02;100520.41;6138836;23;19920;-93
2022/03/02 12:12:56;;;;;;;;;;;;;;;7.36;29.58;100505.84;6214589;23;19983;-93
2022/03/02 12:15:23;;;;;;;;;;;;;;;7.54;30.60;100502.94;6138267;23;19916;-92
2022/03/02 12:17:49;;;;;;;;;;;;;;;7.39;30.72;100511.34;6188750;23;19923;-91
2022/03/02 12:20:18;;;;;;;;;;;;;;;7.49;31.13;100506.94;6163849;23;19916;-91
2022/03/02 12:22:45;;;;;;;;;;;;;;;7.66;32.22;100499.72;6138363;23;20289;-90
2022/03/02 12:25:12;;;;;;;;;;;;;;;7.79;30.45;100495.28;6159733;23;20325;-89
2022/03/02 12:27:37;;;;;;;;;;;;;;;7.98;31.21;100491.94;6136756;23;20334;-89
2022/03/02 12:30:07;;;;;;;;;;;;;;;8.22;30.37;100490.94;6161222;23;19923;-89
2022/03/02 12:32:35;;;;;;;;;;;;;;;8.51;30.15;100498.97;6136427;23;19920;-88
2022/03/02 12:35:05;;;;;;;;;;;;;;;8.52;29.22;100495.00;6137746;23;19942;-89
2022/03/02 12:37:30;;;;;;;;;;;;;;;8.67;29.45;100488.09;6160670;23;19982;-90